sensor_id;sensor_type;location;lat;lon;timestamp;P1;durP1;ratioP1;P2;durP2;ratioP2
31660;SDS011;18267;52.234;7.444;2023-03-25T00:01:04;0.40;;;0.30;;
31660;SDS011;18267;52.234;7.444;2023-03-25T00:03:37;0.60;;;0.30;;
31660;SDS011;18267;52.234;7.444;2023-03-25T00:06:07;1.33;;;0.40;;
31660;SDS011;18267;52.234;7.444;2023-03-25T00:08:34;1.70;;;0.35;;
31660;SDS011;18267;52.234;7.444;2023-03-25T00:11:01;2.50;;;0.35;;
31660;SDS011;18267;52.234;7.444;2023-03-25T00:13:28;3.30;;;0.32;;
31660;SDS011;18267;52.234;7.444;2023-03-25T00:15:58;1.75;;;0.30;;
31660;SDS011;18267;52.234;7.444;2023-03-25T00:18:26;1.70;;;0.52;;
31660;SDS011;18267;52.234;7.444;2023-03-25T00:20:53;0.20;;;0.20;;
31660;SDS011;18267;52.234;7.444;2023-03-25T00:23:19;2.50;;;0.40;;
31660;SDS011;18267;52.234;7.444;2023-03-25T00:25:45;1.10;;;0.40;;
31660;SDS011;18267;52.234;7.444;2023-03-25T00:28:12;3.00;;;0.40;;
31660;SDS011;18267;52.234;7.444;2023-03-25T00:30:42;1.50;;;0.32;;
31660;SDS011;18267;52.234;7.444;2023-03-25T00:33:09;0.85;;;0.50;;
31660;SDS011;18267;52.234;7.444;2023-03-25T00:35:41;1.10;;;0.43;;
31660;SDS011;18267;52.234;7.444;2023-03-25T00:38:10;5.95;;;0.50;;
31660;SDS011;18267;52.234;7.444;2023-03-25T00:40:36;2.45;;;0.57;;
31660;SDS011;18267;52.234;7.444;2023-03-25T00:43:02;2.10;;;0.68;;
31660;SDS011;18267;52.234;7.444;2023-03-25T00:45:28;4.68;;;0.90;;
31660;SDS011;18267;52.234;7.444;2023-03-25T00:47:56;3.58;;;0.63;;
31660;SDS011;18267;52.234;7.444;2023-03-25T00:50:22;1.58;;;0.40;;
31660;SDS011;18267;52.234;7.444;2023-03-25T00:52:48;1.92;;;0.70;;
31660;SDS011;18267;52.234;7.444;2023-03-25T00:55:15;1.75;;;0.50;;
31660;SDS011;18267;52.234;7.444;2023-03-25T00:57:41;2.45;;;1.15;;
31660;SDS011;18267;52.234;7.444;2023-03-25T01:00:08;8.77;;;1.05;;
31660;SDS011;18267;52.234;7.444;2023-03-25T01:02:36;7.05;;;0.70;;
31660;SDS011;18267;52.234;7.444;2023-03-25T01:05:05;4.53;;;0.68;;
31660;SDS011;18267;52.234;7.444;2023-03-25T01:07:33;4.85;;;0.57;;
31660;SDS011;18267;52.234;7.444;2023-03-25T01:09:59;1.52;;;0.60;;
31660;SDS011;18267;52.234;7.444;2023-03-25T01:12:27;3.70;;;0.75;;
31660;SDS011;18267;52.234;7.444;2023-03-25T01:14:54;4.03;;;0.80;;
31660;SDS011;18267;52.234;7.444;2023-03-25T01:17:20;3.90;;;0.80;;
31660;SDS011;18267;52.234;7.444;2023-03-25T01:19:46;6.57;;;0.77;;
31660;SDS011;18267;52.234;7.444;2023-03-25T01:22:12;2.15;;;0.70;;
31660;SDS011;18267;52.234;7.444;2023-03-25T01:24:37;2.42;;;0.80;;
31660;SDS011;18267;52.234;7.444;2023-03-25T01:27:04;2.30;;;0.43;;
31660;SDS011;18267;52.234;7.444;2023-03-25T01:29:30;7.15;;;1.00;;
31660;SDS011;18267;52.234;7.444;2023-03-25T01:31:56;3.90;;;0.88;;
31660;SDS011;18267;52.234;7.444;2023-03-25T01:34:22;2.53;;;0.47;;
31660;SDS011;18267;52.234;7.444;2023-03-25T01:36:47;2.90;;;0.70;;
31660;SDS011;18267;52.234;7.444;2023-03-25T01:39:14;4.78;;;0.77;;
31660;SDS011;18267;52.234;7.444;2023-03-25T01:41:43;5.35;;;1.02;;
31660;SDS011;18267;52.234;7.444;2023-03-25T01:46:39;2.95;;;0.77;;
31660;SDS011;18267;52.234;7.444;2023-03-25T01:49:09;1.65;;;0.60;;
31660;SDS011;18267;52.234;7.444;2023-03-25T01:51:39;2.13;;;0.70;;
31660;SDS011;18267;52.234;7.444;2023-03-25T01:54:09;4.32;;;0.73;;
31660;SDS011;18267;52.234;7.444;2023-03-25T01:56:37;4.20;;;0.80;;
31660;SDS011;18267;52.234;7.444;2023-03-25T01:59:06;4.45;;;1.25;;
31660;SDS011;18267;52.234;7.444;2023-03-25T02:01:33;2.88;;;0.90;;
31660;SDS011;18267;52.234;7.444;2023-03-25T02:04:00;3.95;;;1.02;;
31660;SDS011;18267;52.234;7.444;2023-03-25T02:06:47;3.47;;;0.93;;
31660;SDS011;18267;52.234;7.444;2023-03-25T02:09:17;6.82;;;1.13;;
31660;SDS011;18267;52.234;7.444;2023-03-25T02:11:45;3.88;;;0.98;;
31660;SDS011;18267;52.234;7.444;2023-03-25T02:14:14;3.13;;;0.93;;
31660;SDS011;18267;52.234;7.444;2023-03-25T02:22:17;2.78;;;0.70;;
31660;SDS011;18267;52.234;7.444;2023-03-25T02:41:19;6.72;;;0.73;;
31660;SDS011;18267;52.234;7.444;2023-03-25T02:44:20;2.58;;;0.90;;
31660;SDS011;18267;52.234;7.444;2023-03-25T02:47:12;4.28;;;1.33;;
31660;SDS011;18267;52.234;7.444;2023-03-25T02:49:46;3.35;;;0.55;;
31660;SDS011;18267;52.234;7.444;2023-03-25T02:52:19;3.93;;;0.87;;
31660;SDS011;18267;52.234;7.444;2023-03-25T02:54:48;6.57;;;1.05;;
31660;SDS011;18267;52.234;7.444;2023-03-25T02:57:18;3.92;;;0.60;;
31660;SDS011;18267;52.234;7.444;2023-03-25T02:59:46;10.48;;;1.52;;
31660;SDS011;18267;52.234;7.444;2023-03-25T03:02:13;4.15;;;0.73;;
31660;SDS011;18267;52.234;7.444;2023-03-25T03:04:46;8.27;;;0.75;;
31660;SDS011;18267;52.234;7.444;2023-03-25T03:07:20;3.03;;;0.80;;
31660;SDS011;18267;52.234;7.444;2023-03-25T03:10:05;5.15;;;0.73;;
31660;SDS011;18267;52.234;7.444;2023-03-25T03:12:48;6.57;;;0.75;;
31660;SDS011;18267;52.234;7.444;2023-03-25T03:18:22;6.20;;;1.08;;
31660;SDS011;18267;52.234;7.444;2023-03-25T03:26:23;4.57;;;0.75;;
31660;SDS011;18267;52.234;7.444;2023-03-25T03:29:02;6.10;;;0.82;;
31660;SDS011;18267;52.234;7.444;2023-03-25T03:34:12;7.07;;;0.80;;
31660;SDS011;18267;52.234;7.444;2023-03-25T03:36:44;3.67;;;0.55;;
31660;SDS011;18267;52.234;7.444;2023-03-25T03:39:14;6.03;;;0.57;;
31660;SDS011;18267;52.234;7.444;2023-03-25T03:41:45;4.57;;;0.60;;
31660;SDS011;18267;52.234;7.444;2023-03-25T03:44:15;3.92;;;0.80;;
31660;SDS011;18267;52.234;7.444;2023-03-25T03:46:49;2.15;;;0.55;;
31660;SDS011;18267;52.234;7.444;2023-03-25T03:49:28;5.25;;;1.15;;
31660;SDS011;18267;52.234;7.444;2023-03-25T03:52:12;2.53;;;0.68;;
31660;SDS011;18267;52.234;7.444;2023-03-25T03:54:43;2.10;;;0.82;;
31660;SDS011;18267;52.234;7.444;2023-03-25T04:02:26;2.55;;;0.70;;
31660;SDS011;18267;52.234;7.444;2023-03-25T04:05:02;4.00;;;1.10;;
31660;SDS011;18267;52.234;7.444;2023-03-25T04:07:44;5.15;;;1.35;;
31660;SDS011;18267;52.234;7.444;2023-03-25T04:10:13;4.55;;;0.90;;
31660;SDS011;18267;52.234;7.444;2023-03-25T04:12:58;3.42;;;1.27;;
31660;SDS011;18267;52.234;7.444;2023-03-25T04:15:27;5.80;;;0.95;;
31660;SDS011;18267;52.234;7.444;2023-03-25T04:17:53;4.53;;;0.70;;
31660;SDS011;18267;52.234;7.444;2023-03-25T04:20:20;5.07;;;0.95;;
31660;SDS011;18267;52.234;7.444;2023-03-25T04:22:48;4.13;;;0.98;;
31660;SDS011;18267;52.234;7.444;2023-03-25T04:25:15;4.30;;;0.90;;
31660;SDS011;18267;52.234;7.444;2023-03-25T04:27:45;5.65;;;0.85;;
31660;SDS011;18267;52.234;7.444;2023-03-25T04:30:13;4.90;;;1.05;;
31660;SDS011;18267;52.234;7.444;2023-03-25T04:32:41;2.63;;;0.75;;
31660;SDS011;18267;52.234;7.444;2023-03-25T04:35:10;3.72;;;0.85;;
31660;SDS011;18267;52.234;7.444;2023-03-25T04:37:37;7.40;;;1.27;;
31660;SDS011;18267;52.234;7.444;2023-03-25T04:40:03;5.43;;;0.85;;
31660;SDS011;18267;52.234;7.444;2023-03-25T04:42:33;6.40;;;1.17;;
31660;SDS011;18267;52.234;7.444;2023-03-25T04:45:03;1.58;;;0.80;;
31660;SDS011;18267;52.234;7.444;2023-03-25T04:47:29;4.57;;;1.00;;
31660;SDS011;18267;52.234;7.444;2023-03-25T04:49:56;3.45;;;1.05;;
31660;SDS011;18267;52.234;7.444;2023-03-25T04:52:21;2.15;;;1.10;;
31660;SDS011;18267;52.234;7.444;2023-03-25T04:54:47;2.63;;;0.98;;
31660;SDS011;18267;52.234;7.444;2023-03-25T04:57:13;4.55;;;0.77;;
31660;SDS011;18267;52.234;7.444;2023-03-25T04:59:39;3.40;;;0.88;;
31660;SDS011;18267;52.234;7.444;2023-03-25T05:02:04;4.10;;;1.33;;
31660;SDS011;18267;52.234;7.444;2023-03-25T05:04:31;2.88;;;0.88;;
31660;SDS011;18267;52.234;7.444;2023-03-25T05:06:57;2.60;;;0.95;;
31660;SDS011;18267;52.234;7.444;2023-03-25T05:09:24;2.45;;;0.98;;
31660;SDS011;18267;52.234;7.444;2023-03-25T05:11:51;4.47;;;0.70;;
31660;SDS011;18267;52.234;7.444;2023-03-25T05:14:18;2.20;;;0.85;;
31660;SDS011;18267;52.234;7.444;2023-03-25T05:16:45;7.70;;;1.10;;
31660;SDS011;18267;52.234;7.444;2023-03-25T05:19:12;2.40;;;0.90;;
31660;SDS011;18267;52.234;7.444;2023-03-25T05:21:39;9.38;;;1.67;;
31660;SDS011;18267;52.234;7.444;2023-03-25T05:24:05;6.43;;;1.17;;
31660;SDS011;18267;52.234;7.444;2023-03-25T05:26:34;6.47;;;0.93;;
31660;SDS011;18267;52.234;7.444;2023-03-25T05:29:00;2.67;;;0.90;;
31660;SDS011;18267;52.234;7.444;2023-03-25T05:31:30;3.35;;;1.08;;
31660;SDS011;18267;52.234;7.444;2023-03-25T05:33:56;5.88;;;1.08;;
31660;SDS011;18267;52.234;7.444;2023-03-25T05:36:22;6.40;;;1.05;;
31660;SDS011;18267;52.234;7.444;2023-03-25T05:38:51;4.93;;;1.00;;
31660;SDS011;18267;52.234;7.444;2023-03-25T05:41:21;1.35;;;1.00;;
31660;SDS011;18267;52.234;7.444;2023-03-25T05:43:56;3.17;;;0.95;;
31660;SDS011;18267;52.234;7.444;2023-03-25T05:46:22;8.90;;;0.82;;
31660;SDS011;18267;52.234;7.444;2023-03-25T05:48:48;3.50;;;1.10;;
31660;SDS011;18267;52.234;7.444;2023-03-25T05:51:14;4.22;;;0.73;;
31660;SDS011;18267;52.234;7.444;2023-03-25T05:53:43;4.03;;;1.00;;
31660;SDS011;18267;52.234;7.444;2023-03-25T05:56:13;5.22;;;1.58;;
31660;SDS011;18267;52.234;7.444;2023-03-25T05:58:43;2.30;;;0.40;;
31660;SDS011;18267;52.234;7.444;2023-03-25T06:01:10;1.48;;;0.80;;
31660;SDS011;18267;52.234;7.444;2023-03-25T06:03:38;4.45;;;0.90;;
31660;SDS011;18267;52.234;7.444;2023-03-25T06:06:04;3.47;;;0.90;;
31660;SDS011;18267;52.234;7.444;2023-03-25T06:08:37;3.65;;;1.08;;
31660;SDS011;18267;52.234;7.444;2023-03-25T06:11:16;2.08;;;0.60;;
31660;SDS011;18267;52.234;7.444;2023-03-25T06:13:43;8.90;;;0.88;;
31660;SDS011;18267;52.234;7.444;2023-03-25T06:16:14;1.52;;;0.88;;
31660;SDS011;18267;52.234;7.444;2023-03-25T06:18:42;8.07;;;1.10;;
31660;SDS011;18267;52.234;7.444;2023-03-25T06:21:09;6.45;;;1.00;;
31660;SDS011;18267;52.234;7.444;2023-03-25T06:23:35;4.53;;;1.17;;
31660;SDS011;18267;52.234;7.444;2023-03-25T06:26:03;5.13;;;1.63;;
31660;SDS011;18267;52.234;7.444;2023-03-25T06:28:29;3.88;;;1.40;;
31660;SDS011;18267;52.234;7.444;2023-03-25T06:30:57;5.80;;;1.23;;
31660;SDS011;18267;52.234;7.444;2023-03-25T06:33:23;3.00;;;0.85;;
31660;SDS011;18267;52.234;7.444;2023-03-25T06:35:48;4.07;;;0.90;;
31660;SDS011;18267;52.234;7.444;2023-03-25T06:38:17;6.28;;;0.90;;
31660;SDS011;18267;52.234;7.444;2023-03-25T06:40:44;5.43;;;1.30;;
31660;SDS011;18267;52.234;7.444;2023-03-25T06:43:11;11.85;;;1.20;;
31660;SDS011;18267;52.234;7.444;2023-03-25T06:45:37;7.78;;;1.13;;
31660;SDS011;18267;52.234;7.444;2023-03-25T06:48:03;9.98;;;1.25;;
31660;SDS011;18267;52.234;7.444;2023-03-25T06:50:30;3.88;;;0.75;;
31660;SDS011;18267;52.234;7.444;2023-03-25T06:52:56;5.18;;;1.20;;
31660;SDS011;18267;52.234;7.444;2023-03-25T06:55:22;5.80;;;0.98;;
31660;SDS011;18267;52.234;7.444;2023-03-25T06:57:48;4.90;;;1.00;;
31660;SDS011;18267;52.234;7.444;2023-03-25T07:00:13;5.57;;;0.50;;
31660;SDS011;18267;52.234;7.444;2023-03-25T07:02:44;8.57;;;0.73;;
31660;SDS011;18267;52.234;7.444;2023-03-25T07:05:10;6.10;;;0.80;;
31660;SDS011;18267;52.234;7.444;2023-03-25T07:07:35;1.52;;;0.80;;
31660;SDS011;18267;52.234;7.444;2023-03-25T07:10:01;5.65;;;1.10;;
31660;SDS011;18267;52.234;7.444;2023-03-25T07:12:36;4.22;;;0.98;;
31660;SDS011;18267;52.234;7.444;2023-03-25T07:15:04;2.60;;;0.70;;
31660;SDS011;18267;52.234;7.444;2023-03-25T07:17:30;4.20;;;0.52;;
31660;SDS011;18267;52.234;7.444;2023-03-25T07:19:55;3.65;;;0.65;;
31660;SDS011;18267;52.234;7.444;2023-03-25T07:22:21;3.22;;;0.60;;
31660;SDS011;18267;52.234;7.444;2023-03-25T07:24:46;5.10;;;0.73;;
31660;SDS011;18267;52.234;7.444;2023-03-25T07:27:12;3.25;;;0.98;;
31660;SDS011;18267;52.234;7.444;2023-03-25T07:29:39;2.38;;;0.60;;
31660;SDS011;18267;52.234;7.444;2023-03-25T07:32:04;3.05;;;0.85;;
31660;SDS011;18267;52.234;7.444;2023-03-25T07:34:30;4.57;;;1.00;;
31660;SDS011;18267;52.234;7.444;2023-03-25T07:36:56;5.30;;;0.80;;
31660;SDS011;18267;52.234;7.444;2023-03-25T07:39:22;6.38;;;1.33;;
31660;SDS011;18267;52.234;7.444;2023-03-25T07:41:49;6.63;;;0.82;;
31660;SDS011;18267;52.234;7.444;2023-03-25T07:44:15;4.43;;;1.23;;
31660;SDS011;18267;52.234;7.444;2023-03-25T07:46:44;5.88;;;0.90;;
31660;SDS011;18267;52.234;7.444;2023-03-25T07:49:11;8.13;;;1.35;;
31660;SDS011;18267;52.234;7.444;2023-03-25T07:51:36;6.05;;;0.98;;
31660;SDS011;18267;52.234;7.444;2023-03-25T07:54:02;7.60;;;1.02;;
31660;SDS011;18267;52.234;7.444;2023-03-25T07:56:28;4.90;;;1.17;;
31660;SDS011;18267;52.234;7.444;2023-03-25T07:58:54;2.92;;;1.13;;
31660;SDS011;18267;52.234;7.444;2023-03-25T08:01:21;4.82;;;0.70;;
31660;SDS011;18267;52.234;7.444;2023-03-25T08:03:47;3.17;;;0.95;;
31660;SDS011;18267;52.234;7.444;2023-03-25T08:06:13;5.10;;;1.33;;
31660;SDS011;18267;52.234;7.444;2023-03-25T08:08:38;1.30;;;0.80;;
31660;SDS011;18267;52.234;7.444;2023-03-25T08:11:04;4.35;;;1.10;;
31660;SDS011;18267;52.234;7.444;2023-03-25T08:13:30;10.35;;;1.73;;
31660;SDS011;18267;52.234;7.444;2023-03-25T08:15:56;5.13;;;1.05;;
31660;SDS011;18267;52.234;7.444;2023-03-25T08:18:22;10.07;;;1.40;;
31660;SDS011;18267;52.234;7.444;2023-03-25T08:20:48;5.85;;;1.13;;
31660;SDS011;18267;52.234;7.444;2023-03-25T08:23:15;7.97;;;1.27;;
31660;SDS011;18267;52.234;7.444;2023-03-25T08:25:43;12.43;;;1.30;;
31660;SDS011;18267;52.234;7.444;2023-03-25T08:28:13;9.70;;;1.30;;
31660;SDS011;18267;52.234;7.444;2023-03-25T08:30:41;10.52;;;2.08;;
31660;SDS011;18267;52.234;7.444;2023-03-25T08:33:08;6.25;;;1.10;;
31660;SDS011;18267;52.234;7.444;2023-03-25T08:35:35;6.25;;;1.10;;
31660;SDS011;18267;52.234;7.444;2023-03-25T08:38:01;5.22;;;1.20;;
31660;SDS011;18267;52.234;7.444;2023-03-25T08:40:32;3.67;;;1.20;;
31660;SDS011;18267;52.234;7.444;2023-03-25T08:42:59;10.40;;;1.33;;
31660;SDS011;18267;52.234;7.444;2023-03-25T08:45:28;6.47;;;1.40;;
31660;SDS011;18267;52.234;7.444;2023-03-25T08:47:55;7.25;;;1.40;;
31660;SDS011;18267;52.234;7.444;2023-03-25T08:50:21;6.93;;;1.50;;
31660;SDS011;18267;52.234;7.444;2023-03-25T08:52:46;14.23;;;1.55;;
31660;SDS011;18267;52.234;7.444;2023-03-25T08:55:13;2.40;;;1.00;;
31660;SDS011;18267;52.234;7.444;2023-03-25T08:57:41;10.63;;;1.38;;
31660;SDS011;18267;52.234;7.444;2023-03-25T09:00:08;9.30;;;1.50;;
31660;SDS011;18267;52.234;7.444;2023-03-25T09:02:37;8.35;;;1.20;;
31660;SDS011;18267;52.234;7.444;2023-03-25T09:05:02;3.65;;;1.13;;
31660;SDS011;18267;52.234;7.444;2023-03-25T09:07:28;8.95;;;1.48;;
31660;SDS011;18267;52.234;7.444;2023-03-25T09:09:54;11.95;;;1.98;;
31660;SDS011;18267;52.234;7.444;2023-03-25T09:12:20;7.30;;;1.02;;
31660;SDS011;18267;52.234;7.444;2023-03-25T09:14:46;9.93;;;0.90;;
31660;SDS011;18267;52.234;7.444;2023-03-25T09:17:12;4.47;;;0.90;;
31660;SDS011;18267;52.234;7.444;2023-03-25T09:19:37;8.77;;;1.60;;
31660;SDS011;18267;52.234;7.444;2023-03-25T09:22:03;7.65;;;1.75;;
31660;SDS011;18267;52.234;7.444;2023-03-25T09:24:30;9.63;;;1.30;;
31660;SDS011;18267;52.234;7.444;2023-03-25T09:26:58;3.63;;;1.10;;
31660;SDS011;18267;52.234;7.444;2023-03-25T09:29:28;4.68;;;0.82;;
31660;SDS011;18267;52.234;7.444;2023-03-25T09:31:54;5.30;;;0.80;;
31660;SDS011;18267;52.234;7.444;2023-03-25T09:34:22;6.93;;;1.10;;
31660;SDS011;18267;52.234;7.444;2023-03-25T09:36:48;4.43;;;0.82;;
31660;SDS011;18267;52.234;7.444;2023-03-25T09:39:14;4.38;;;0.77;;
31660;SDS011;18267;52.234;7.444;2023-03-25T09:41:45;3.03;;;0.82;;
31660;SDS011;18267;52.234;7.444;2023-03-25T09:47:30;10.52;;;1.27;;
31660;SDS011;18267;52.234;7.444;2023-03-25T09:50:11;6.50;;;0.63;;
31660;SDS011;18267;52.234;7.444;2023-03-25T09:55:52;6.03;;;1.38;;
31660;SDS011;18267;52.234;7.444;2023-03-25T09:59:04;5.40;;;0.90;;
31660;SDS011;18267;52.234;7.444;2023-03-25T10:01:20;10.77;;;1.20;;
31660;SDS011;18267;52.234;7.444;2023-03-25T10:04:06;2.90;;;1.20;;
31660;SDS011;18267;52.234;7.444;2023-03-25T10:09:42;7.47;;;1.20;;
31660;SDS011;18267;52.234;7.444;2023-03-25T10:18:08;8.32;;;1.30;;
31660;SDS011;18267;52.234;7.444;2023-03-25T10:23:40;2.17;;;0.90;;
31660;SDS011;18267;52.234;7.444;2023-03-25T10:26:17;13.02;;;2.20;;
31660;SDS011;18267;52.234;7.444;2023-03-25T10:28:55;8.13;;;0.90;;
31660;SDS011;18267;52.234;7.444;2023-03-25T10:31:27;3.45;;;0.70;;
31660;SDS011;18267;52.234;7.444;2023-03-25T10:33:56;3.70;;;1.05;;
31660;SDS011;18267;52.234;7.444;2023-03-25T10:36:39;3.67;;;1.02;;
31660;SDS011;18267;52.234;7.444;2023-03-25T10:39:15;7.82;;;1.33;;
31660;SDS011;18267;52.234;7.444;2023-03-25T10:41:47;10.80;;;0.70;;
31660;SDS011;18267;52.234;7.444;2023-03-25T10:44:24;12.27;;;1.30;;
31660;SDS011;18267;52.234;7.444;2023-03-25T10:46:59;6.75;;;0.95;;
31660;SDS011;18267;52.234;7.444;2023-03-25T10:49:33;7.10;;;1.23;;
31660;SDS011;18267;52.234;7.444;2023-03-25T10:52:00;15.45;;;1.75;;
31660;SDS011;18267;52.234;7.444;2023-03-25T10:54:32;3.63;;;1.17;;
31660;SDS011;18267;52.234;7.444;2023-03-25T10:57:02;12.98;;;1.48;;
31660;SDS011;18267;52.234;7.444;2023-03-25T10:59:42;7.65;;;1.33;;
31660;SDS011;18267;52.234;7.444;2023-03-25T11:02:21;7.65;;;1.45;;
31660;SDS011;18267;52.234;7.444;2023-03-25T11:04:52;3.53;;;1.35;;
31660;SDS011;18267;52.234;7.444;2023-03-25T11:07:26;9.68;;;1.85;;
31660;SDS011;18267;52.234;7.444;2023-03-25T11:12:56;5.90;;;1.17;;
31660;SDS011;18267;52.234;7.444;2023-03-25T11:15:32;10.88;;;1.63;;
31660;SDS011;18267;52.234;7.444;2023-03-25T11:18:03;10.52;;;1.48;;
31660;SDS011;18267;52.234;7.444;2023-03-25T11:20:39;4.90;;;0.90;;
31660;SDS011;18267;52.234;7.444;2023-03-25T11:23:15;6.30;;;0.80;;
31660;SDS011;18267;52.234;7.444;2023-03-25T11:25:44;4.72;;;0.60;;
31660;SDS011;18267;52.234;7.444;2023-03-25T11:28:11;3.10;;;0.60;;
31660;SDS011;18267;52.234;7.444;2023-03-25T11:34:02;4.13;;;0.60;;
31660;SDS011;18267;52.234;7.444;2023-03-25T11:36:38;4.13;;;0.50;;
31660;SDS011;18267;52.234;7.444;2023-03-25T11:39:33;4.47;;;0.80;;
31660;SDS011;18267;52.234;7.444;2023-03-25T11:42:13;4.25;;;0.60;;
31660;SDS011;18267;52.234;7.444;2023-03-25T11:44:50;5.47;;;1.00;;
31660;SDS011;18267;52.234;7.444;2023-03-25T11:47:21;3.00;;;1.23;;
31660;SDS011;18267;52.234;7.444;2023-03-25T11:49:52;6.20;;;1.13;;
31660;SDS011;18267;52.234;7.444;2023-03-25T11:52:22;4.70;;;0.88;;
31660;SDS011;18267;52.234;7.444;2023-03-25T11:54:51;4.18;;;0.57;;
31660;SDS011;18267;52.234;7.444;2023-03-25T11:57:23;2.60;;;0.68;;
31660;SDS011;18267;52.234;7.444;2023-03-25T12:00:02;5.43;;;0.40;;
31660;SDS011;18267;52.234;7.444;2023-03-25T12:02:37;2.25;;;0.60;;
31660;SDS011;18267;52.234;7.444;2023-03-25T12:07:48;1.48;;;0.30;;
31660;SDS011;18267;52.234;7.444;2023-03-25T12:13:15;6.00;;;0.55;;
31660;SDS011;18267;52.234;7.444;2023-03-25T12:21:16;7.00;;;0.95;;
31660;SDS011;18267;52.234;7.444;2023-03-25T12:23:58;7.78;;;1.23;;
31660;SDS011;18267;52.234;7.444;2023-03-25T12:26:38;1.90;;;0.68;;
31660;SDS011;18267;52.234;7.444;2023-03-25T12:29:17;7.80;;;1.25;;
31660;SDS011;18267;52.234;7.444;2023-03-25T12:37:53;3.45;;;0.68;;
31660;SDS011;18267;52.234;7.444;2023-03-25T12:40:54;6.85;;;0.80;;
31660;SDS011;18267;52.234;7.444;2023-03-25T12:46:21;3.42;;;0.82;;
31660;SDS011;18267;52.234;7.444;2023-03-25T12:49:25;7.72;;;0.90;;
31660;SDS011;18267;52.234;7.444;2023-03-25T12:52:07;8.27;;;0.80;;
31660;SDS011;18267;52.234;7.444;2023-03-25T13:05:52;7.65;;;1.00;;
31660;SDS011;18267;52.234;7.444;2023-03-25T13:08:46;3.23;;;0.80;;
31660;SDS011;18267;52.234;7.444;2023-03-25T13:11:21;5.28;;;0.60;;
31660;SDS011;18267;52.234;7.444;2023-03-25T13:13:52;5.50;;;0.85;;
31660;SDS011;18267;52.234;7.444;2023-03-25T13:16:24;5.35;;;1.13;;
31660;SDS011;18267;52.234;7.444;2023-03-25T13:18:54;7.03;;;1.13;;
31660;SDS011;18267;52.234;7.444;2023-03-25T13:21:37;3.10;;;0.60;;
31660;SDS011;18267;52.234;7.444;2023-03-25T13:24:18;5.78;;;1.13;;
31660;SDS011;18267;52.234;7.444;2023-03-25T13:26:51;10.68;;;1.20;;
31660;SDS011;18267;52.234;7.444;2023-03-25T13:29:22;9.98;;;1.10;;
31660;SDS011;18267;52.234;7.444;2023-03-25T13:32:02;8.77;;;1.45;;
31660;SDS011;18267;52.234;7.444;2023-03-25T13:34:43;8.27;;;1.23;;
31660;SDS011;18267;52.234;7.444;2023-03-25T13:42:53;9.75;;;1.58;;
31660;SDS011;18267;52.234;7.444;2023-03-25T13:45:26;9.18;;;1.10;;
31660;SDS011;18267;52.234;7.444;2023-03-25T13:48:14;7.00;;;1.30;;
31660;SDS011;18267;52.234;7.444;2023-03-25T13:50:43;10.50;;;1.42;;
31660;SDS011;18267;52.234;7.444;2023-03-25T13:53:12;5.95;;;1.17;;
31660;SDS011;18267;52.234;7.444;2023-03-25T14:04:34;3.58;;;0.88;;
31660;SDS011;18267;52.234;7.444;2023-03-25T14:06:52;8.68;;;1.02;;
31660;SDS011;18267;52.234;7.444;2023-03-25T14:12:45;2.75;;;0.50;;
31660;SDS011;18267;52.234;7.444;2023-03-25T14:15:20;3.72;;;0.63;;
31660;SDS011;18267;52.234;7.444;2023-03-25T14:17:55;3.00;;;0.80;;
31660;SDS011;18267;52.234;7.444;2023-03-25T14:20:28;3.45;;;0.60;;
31660;SDS011;18267;52.234;7.444;2023-03-25T14:23:00;3.97;;;0.40;;
31660;SDS011;18267;52.234;7.444;2023-03-25T14:28:03;2.67;;;0.65;;
31660;SDS011;18267;52.234;7.444;2023-03-25T14:30:31;0.98;;;0.28;;
31660;SDS011;18267;52.234;7.444;2023-03-25T14:32:58;3.30;;;0.82;;
31660;SDS011;18267;52.234;7.444;2023-03-25T14:48:37;1.63;;;0.60;;
31660;SDS011;18267;52.234;7.444;2023-03-25T14:51:14;3.33;;;0.50;;
31660;SDS011;18267;52.234;7.444;2023-03-25T14:56:56;3.17;;;0.77;;
31660;SDS011;18267;52.234;7.444;2023-03-25T14:59:50;1.88;;;0.80;;
31660;SDS011;18267;52.234;7.444;2023-03-25T15:04:55;11.43;;;1.30;;
31660;SDS011;18267;52.234;7.444;2023-03-25T15:07:37;4.20;;;1.00;;
31660;SDS011;18267;52.234;7.444;2023-03-25T15:10:07;10.25;;;1.15;;
31660;SDS011;18267;52.234;7.444;2023-03-25T15:12:52;10.80;;;0.95;;
31660;SDS011;18267;52.234;7.444;2023-03-25T15:15:51;6.35;;;0.80;;
31660;SDS011;18267;52.234;7.444;2023-03-25T15:21:12;7.43;;;1.05;;
31660;SDS011;18267;52.234;7.444;2023-03-25T15:23:51;7.88;;;1.25;;
31660;SDS011;18267;52.234;7.444;2023-03-25T15:26:32;8.00;;;1.42;;
31660;SDS011;18267;52.234;7.444;2023-03-25T15:31:42;6.13;;;1.10;;
31660;SDS011;18267;52.234;7.444;2023-03-25T15:57:15;7.13;;;0.98;;
31660;SDS011;18267;52.234;7.444;2023-03-25T15:59:43;6.72;;;0.40;;
31660;SDS011;18267;52.234;7.444;2023-03-25T16:02:27;2.45;;;0.50;;
31660;SDS011;18267;52.234;7.444;2023-03-25T16:04:58;3.65;;;0.52;;
31660;SDS011;18267;52.234;7.444;2023-03-25T16:07:25;2.58;;;0.40;;
31660;SDS011;18267;52.234;7.444;2023-03-25T16:10:03;3.42;;;0.43;;
31660;SDS011;18267;52.234;7.444;2023-03-25T16:12:43;3.22;;;0.50;;
31660;SDS011;18267;52.234;7.444;2023-03-25T16:15:12;5.82;;;0.60;;
31660;SDS011;18267;52.234;7.444;2023-03-25T16:17:40;9.20;;;0.80;;
31660;SDS011;18267;52.234;7.444;2023-03-25T16:20:12;3.60;;;0.30;;
31660;SDS011;18267;52.234;7.444;2023-03-25T16:22:51;5.30;;;0.70;;
31660;SDS011;18267;52.234;7.444;2023-03-25T16:25:23;6.05;;;0.50;;
31660;SDS011;18267;52.234;7.444;2023-03-25T16:27:54;2.72;;;0.80;;
31660;SDS011;18267;52.234;7.444;2023-03-25T16:30:39;7.57;;;0.68;;
31660;SDS011;18267;52.234;7.444;2023-03-25T16:35:34;1.85;;;0.52;;
31660;SDS011;18267;52.234;7.444;2023-03-25T16:38:02;3.47;;;0.63;;
31660;SDS011;18267;52.234;7.444;2023-03-25T16:40:30;13.90;;;1.05;;
31660;SDS011;18267;52.234;7.444;2023-03-25T16:43:03;2.63;;;0.77;;
31660;SDS011;18267;52.234;7.444;2023-03-25T16:45:31;8.82;;;1.02;;
31660;SDS011;18267;52.234;7.444;2023-03-25T16:48:01;4.28;;;0.70;;
31660;SDS011;18267;52.234;7.444;2023-03-25T16:50:31;6.47;;;0.80;;
31660;SDS011;18267;52.234;7.444;2023-03-25T16:52:58;1.90;;;0.80;;
31660;SDS011;18267;52.234;7.444;2023-03-25T16:56:19;1.77;;;0.57;;
31660;SDS011;18267;52.234;7.444;2023-03-25T16:58:25;1.35;;;0.25;;
31660;SDS011;18267;52.234;7.444;2023-03-25T17:00:53;1.98;;;0.43;;
31660;SDS011;18267;52.234;7.444;2023-03-25T17:09:03;1.35;;;0.52;;
31660;SDS011;18267;52.234;7.444;2023-03-25T17:11:34;2.85;;;0.35;;
31660;SDS011;18267;52.234;7.444;2023-03-25T17:14:06;6.63;;;0.32;;
31660;SDS011;18267;52.234;7.444;2023-03-25T17:16:39;1.20;;;0.22;;
31660;SDS011;18267;52.234;7.444;2023-03-25T17:19:06;2.50;;;0.30;;
31660;SDS011;18267;52.234;7.444;2023-03-25T17:21:32;3.20;;;0.40;;
31660;SDS011;18267;52.234;7.444;2023-03-25T17:24:00;0.85;;;0.32;;
31660;SDS011;18267;52.234;7.444;2023-03-25T17:29:30;1.35;;;0.30;;
31660;SDS011;18267;52.234;7.444;2023-03-25T17:31:56;0.50;;;0.20;;
31660;SDS011;18267;52.234;7.444;2023-03-25T17:34:23;3.60;;;0.30;;
31660;SDS011;18267;52.234;7.444;2023-03-25T17:36:59;0.30;;;0.30;;
31660;SDS011;18267;52.234;7.444;2023-03-25T17:39:31;1.13;;;0.28;;
31660;SDS011;18267;52.234;7.444;2023-03-25T17:42:04;2.05;;;0.30;;
31660;SDS011;18267;52.234;7.444;2023-03-25T17:44:42;2.03;;;0.20;;
31660;SDS011;18267;52.234;7.444;2023-03-25T17:47:12;1.50;;;0.30;;
31660;SDS011;18267;52.234;7.444;2023-03-25T17:49:40;0.40;;;0.20;;
31660;SDS011;18267;52.234;7.444;2023-03-25T17:52:08;1.38;;;0.20;;
31660;SDS011;18267;52.234;7.444;2023-03-25T17:54:35;0.20;;;0.10;;
31660;SDS011;18267;52.234;7.444;2023-03-25T17:57:05;1.42;;;0.40;;
31660;SDS011;18267;52.234;7.444;2023-03-25T17:59:34;0.68;;;0.20;;
31660;SDS011;18267;52.234;7.444;2023-03-25T18:02:01;0.30;;;0.20;;
31660;SDS011;18267;52.234;7.444;2023-03-25T18:04:32;4.63;;;0.20;;